sensor_id;sensor_type;location;lat;lon;timestamp;temperature;humidity
14142;DHT22;7151;52.246;4.820;2023-07-09T00:02:26;29.90;55.80
14142;DHT22;7151;52.246;4.820;2023-07-09T00:04:52;29.80;55.70
14142;DHT22;7151;52.246;4.820;2023-07-09T00:07:22;29.80;55.80
14142;DHT22;7151;52.246;4.820;2023-07-09T00:09:50;29.80;55.80
14142;DHT22;7151;52.246;4.820;2023-07-09T00:12:17;29.80;55.90
14142;DHT22;7151;52.246;4.820;2023-07-09T00:14:43;29.70;55.90
14142;DHT22;7151;52.246;4.820;2023-07-09T00:17:19;29.70;56.10
14142;DHT22;7151;52.246;4.820;2023-07-09T00:19:46;29.70;56.30
14142;DHT22;7151;52.246;4.820;2023-07-09T00:22:16;29.70;56.40
14142;DHT22;7151;52.246;4.820;2023-07-09T00:24:47;29.60;56.50
14142;DHT22;7151;52.246;4.820;2023-07-09T00:27:13;29.60;56.50
14142;DHT22;7151;52.246;4.820;2023-07-09T00:29:40;29.60;56.60
14142;DHT22;7151;52.246;4.820;2023-07-09T00:32:17;29.50;56.70
14142;DHT22;7151;52.246;4.820;2023-07-09T00:34:49;29.50;56.90
14142;DHT22;7151;52.246;4.820;2023-07-09T00:37:19;29.50;57.00
14142;DHT22;7151;52.246;4.820;2023-07-09T00:39:48;29.50;57.10
14142;DHT22;7151;52.246;4.820;2023-07-09T00:42:15;29.40;57.10
14142;DHT22;7151;52.246;4.820;2023-07-09T00:44:44;29.40;57.20
14142;DHT22;7151;52.246;4.820;2023-07-09T00:52:35;29.30;57.40
14142;DHT22;7151;52.246;4.820;2023-07-09T00:55:08;29.30;57.50
14142;DHT22;7151;52.246;4.820;2023-07-09T00:57:38;29.30;57.50
14142;DHT22;7151;52.246;4.820;2023-07-09T01:00:09;29.30;57.60
14142;DHT22;7151;52.246;4.820;2023-07-09T01:02:39;29.20;57.60
14142;DHT22;7151;52.246;4.820;2023-07-09T01:05:09;29.20;57.60
14142;DHT22;7151;52.246;4.820;2023-07-09T01:07:37;29.20;57.70
14142;DHT22;7151;52.246;4.820;2023-07-09T01:10:03;29.20;57.80
14142;DHT22;7151;52.246;4.820;2023-07-09T01:12:29;29.20;57.90
14142;DHT22;7151;52.246;4.820;2023-07-09T01:14:56;29.10;57.80
14142;DHT22;7151;52.246;4.820;2023-07-09T01:17:25;29.10;57.70
14142;DHT22;7151;52.246;4.820;2023-07-09T01:19:54;29.10;57.70
14142;DHT22;7151;52.246;4.820;2023-07-09T01:22:21;29.00;57.60
14142;DHT22;7151;52.246;4.820;2023-07-09T01:25:04;29.10;57.60
14142;DHT22;7151;52.246;4.820;2023-07-09T01:27:35;29.10;57.60
14142;DHT22;7151;52.246;4.820;2023-07-09T01:30:08;29.10;57.40
14142;DHT22;7151;52.246;4.820;2023-07-09T01:32:34;29.10;57.30
14142;DHT22;7151;52.246;4.820;2023-07-09T01:35:01;29.00;57.30
14142;DHT22;7151;52.246;4.820;2023-07-09T01:37:36;29.00;57.30
14142;DHT22;7151;52.246;4.820;2023-07-09T01:40:06;29.00;57.50
14142;DHT22;7151;52.246;4.820;2023-07-09T01:42:35;29.00;57.60
14142;DHT22;7151;52.246;4.820;2023-07-09T01:45:02;29.00;57.60
14142;DHT22;7151;52.246;4.820;2023-07-09T01:47:30;28.90;57.60
14142;DHT22;7151;52.246;4.820;2023-07-09T01:49:55;28.90;57.70
14142;DHT22;7151;52.246;4.820;2023-07-09T01:52:24;28.80;57.70
14142;DHT22;7151;52.246;4.820;2023-07-09T01:54:50;28.80;57.80
14142;DHT22;7151;52.246;4.820;2023-07-09T01:57:20;28.80;57.90
14142;DHT22;7151;52.246;4.820;2023-07-09T01:59:51;28.70;58.00
14142;DHT22;7151;52.246;4.820;2023-07-09T02:02:18;28.70;58.10
14142;DHT22;7151;52.246;4.820;2023-07-09T02:04:52;28.70;58.10
14142;DHT22;7151;52.246;4.820;2023-07-09T02:07:19;28.60;58.30
14142;DHT22;7151;52.246;4.820;2023-07-09T02:09:46;28.60;58.30
14142;DHT22;7151;52.246;4.820;2023-07-09T02:12:12;28.50;58.30
14142;DHT22;7151;52.246;4.820;2023-07-09T02:14:39;28.50;58.50
14142;DHT22;7151;52.246;4.820;2023-07-09T02:17:05;28.50;58.60
14142;DHT22;7151;52.246;4.820;2023-07-09T02:19:31;28.50;58.70
14142;DHT22;7151;52.246;4.820;2023-07-09T02:21:57;28.40;58.70
14142;DHT22;7151;52.246;4.820;2023-07-09T02:24:23;28.40;58.90
14142;DHT22;7151;52.246;4.820;2023-07-09T02:26:54;28.40;59.00
14142;DHT22;7151;52.246;4.820;2023-07-09T02:29:19;28.30;59.00
14142;DHT22;7151;52.246;4.820;2023-07-09T02:31:47;28.30;59.10
14142;DHT22;7151;52.246;4.820;2023-07-09T02:34:13;28.30;59.20
14142;DHT22;7151;52.246;4.820;2023-07-09T02:36:39;28.30;59.30
14142;DHT22;7151;52.246;4.820;2023-07-09T02:39:09;28.30;59.40
14142;DHT22;7151;52.246;4.820;2023-07-09T02:41:35;28.20;59.50
14142;DHT22;7151;52.246;4.820;2023-07-09T02:44:01;28.20;59.60
14142;DHT22;7151;52.246;4.820;2023-07-09T02:46:27;28.10;59.70
14142;DHT22;7151;52.246;4.820;2023-07-09T02:48:52;28.10;59.80
14142;DHT22;7151;52.246;4.820;2023-07-09T02:51:18;28.10;59.90
14142;DHT22;7151;52.246;4.820;2023-07-09T02:53:43;28.10;60.00
14142;DHT22;7151;52.246;4.820;2023-07-09T02:56:09;28.10;60.10
14142;DHT22;7151;52.246;4.820;2023-07-09T02:58:34;28.00;60.20
14142;DHT22;7151;52.246;4.820;2023-07-09T03:01:00;28.00;60.40
14142;DHT22;7151;52.246;4.820;2023-07-09T03:03:25;28.00;60.50
14142;DHT22;7151;52.246;4.820;2023-07-09T03:05:51;28.00;60.60
14142;DHT22;7151;52.246;4.820;2023-07-09T03:08:16;27.90;60.60
14142;DHT22;7151;52.246;4.820;2023-07-09T03:10:42;27.90;60.70
14142;DHT22;7151;52.246;4.820;2023-07-09T03:13:07;27.90;60.90
14142;DHT22;7151;52.246;4.820;2023-07-09T03:15:33;27.90;61.00
14142;DHT22;7151;52.246;4.820;2023-07-09T03:17:58;27.90;61.00
14142;DHT22;7151;52.246;4.820;2023-07-09T03:20:24;27.90;61.20
14142;DHT22;7151;52.246;4.820;2023-07-09T03:22:50;27.80;61.30
14142;DHT22;7151;52.246;4.820;2023-07-09T03:25:16;27.80;61.40
14142;DHT22;7151;52.246;4.820;2023-07-09T03:27:41;27.80;61.50
14142;DHT22;7151;52.246;4.820;2023-07-09T03:30:07;27.80;61.70
14142;DHT22;7151;52.246;4.820;2023-07-09T03:32:32;27.70;61.70
14142;DHT22;7151;52.246;4.820;2023-07-09T03:34:58;27.70;61.80
14142;DHT22;7151;52.246;4.820;2023-07-09T03:37:24;27.70;61.90
14142;DHT22;7151;52.246;4.820;2023-07-09T03:39:49;27.70;62.00
14142;DHT22;7151;52.246;4.820;2023-07-09T03:42:15;27.70;62.10
14142;DHT22;7151;52.246;4.820;2023-07-09T03:44:40;27.60;62.20
14142;DHT22;7151;52.246;4.820;2023-07-09T03:47:06;27.60;62.40
14142;DHT22;7151;52.246;4.820;2023-07-09T03:49:32;27.60;62.50
14142;DHT22;7151;52.246;4.820;2023-07-09T03:51:58;27.60;62.60
14142;DHT22;7151;52.246;4.820;2023-07-09T03:54:23;27.60;62.70
14142;DHT22;7151;52.246;4.820;2023-07-09T03:56:49;27.50;62.70
14142;DHT22;7151;52.246;4.820;2023-07-09T03:59:14;27.50;62.90
14142;DHT22;7151;52.246;4.820;2023-07-09T04:01:40;27.50;63.10
14142;DHT22;7151;52.246;4.820;2023-07-09T04:04:12;27.50;63.20
14142;DHT22;7151;52.246;4.820;2023-07-09T04:06:37;27.40;63.20
14142;DHT22;7151;52.246;4.820;2023-07-09T04:09:03;27.40;63.30
14142;DHT22;7151;52.246;4.820;2023-07-09T04:11:28;27.40;63.40
14142;DHT22;7151;52.246;4.820;2023-07-09T04:13:54;27.40;63.60
14142;DHT22;7151;52.246;4.820;2023-07-09T04:16:19;27.30;63.70
14142;DHT22;7151;52.246;4.820;2023-07-09T04:18:45;27.30;63.80
14142;DHT22;7151;52.246;4.820;2023-07-09T04:21:10;27.30;64.00
14142;DHT22;7151;52.246;4.820;2023-07-09T04:23:36;27.30;64.10
14142;DHT22;7151;52.246;4.820;2023-07-09T04:26:01;27.30;64.40
14142;DHT22;7151;52.246;4.820;2023-07-09T04:28:29;27.30;64.50
14142;DHT22;7151;52.246;4.820;2023-07-09T04:30:55;27.20;64.60
14142;DHT22;7151;52.246;4.820;2023-07-09T04:33:21;27.20;64.80
14142;DHT22;7151;52.246;4.820;2023-07-09T04:35:47;27.20;64.90
14142;DHT22;7151;52.246;4.820;2023-07-09T04:38:14;27.30;65.00
14142;DHT22;7151;52.246;4.820;2023-07-09T04:40:40;27.30;65.10
14142;DHT22;7151;52.246;4.820;2023-07-09T04:43:06;27.30;65.20
14142;DHT22;7151;52.246;4.820;2023-07-09T04:45:31;27.30;65.30
14142;DHT22;7151;52.246;4.820;2023-07-09T04:47:57;27.30;65.30
14142;DHT22;7151;52.246;4.820;2023-07-09T04:50:22;27.30;65.40
14142;DHT22;7151;52.246;4.820;2023-07-09T04:52:48;27.30;65.50
14142;DHT22;7151;52.246;4.820;2023-07-09T04:55:13;27.30;65.60
14142;DHT22;7151;52.246;4.820;2023-07-09T04:57:39;27.30;65.80
14142;DHT22;7151;52.246;4.820;2023-07-09T05:00:05;27.30;65.80
14142;DHT22;7151;52.246;4.820;2023-07-09T05:02:31;27.30;65.80
14142;DHT22;7151;52.246;4.820;2023-07-09T05:04:57;27.30;65.90
14142;DHT22;7151;52.246;4.820;2023-07-09T05:07:22;27.30;66.10
14142;DHT22;7151;52.246;4.820;2023-07-09T05:09:48;27.30;66.20
14142;DHT22;7151;52.246;4.820;2023-07-09T05:12:13;27.30;66.40
14142;DHT22;7151;52.246;4.820;2023-07-09T05:14:39;27.20;66.40
14142;DHT22;7151;52.246;4.820;2023-07-09T05:17:06;27.30;66.50
14142;DHT22;7151;52.246;4.820;2023-07-09T05:19:32;27.30;66.80
14142;DHT22;7151;52.246;4.820;2023-07-09T05:22:00;27.20;66.90
14142;DHT22;7151;52.246;4.820;2023-07-09T05:24:26;27.20;67.00
14142;DHT22;7151;52.246;4.820;2023-07-09T05:26:51;27.20;67.00
14142;DHT22;7151;52.246;4.820;2023-07-09T05:29:17;27.30;67.00
14142;DHT22;7151;52.246;4.820;2023-07-09T05:31:42;27.30;67.20
14142;DHT22;7151;52.246;4.820;2023-07-09T05:34:08;27.30;67.30
14142;DHT22;7151;52.246;4.820;2023-07-09T05:36:34;27.30;67.50
14142;DHT22;7151;52.246;4.820;2023-07-09T05:38:59;27.30;67.60
14142;DHT22;7151;52.246;4.820;2023-07-09T05:41:25;27.30;67.60
14142;DHT22;7151;52.246;4.820;2023-07-09T05:43:51;27.40;67.80
14142;DHT22;7151;52.246;4.820;2023-07-09T05:46:18;27.40;67.90
14142;DHT22;7151;52.246;4.820;2023-07-09T05:48:44;27.40;67.90
14142;DHT22;7151;52.246;4.820;2023-07-09T05:51:10;27.40;67.90
14142;DHT22;7151;52.246;4.820;2023-07-09T05:53:35;27.40;68.00
14142;DHT22;7151;52.246;4.820;2023-07-09T05:56:01;27.50;68.00
14142;DHT22;7151;52.246;4.820;2023-07-09T05:58:27;27.50;68.00
14142;DHT22;7151;52.246;4.820;2023-07-09T06:00:53;27.60;68.00
14142;DHT22;7151;52.246;4.820;2023-07-09T06:03:20;27.60;67.90
14142;DHT22;7151;52.246;4.820;2023-07-09T06:05:47;27.60;67.80
14142;DHT22;7151;52.246;4.820;2023-07-09T06:08:15;27.60;67.70
14142;DHT22;7151;52.246;4.820;2023-07-09T06:10:53;27.60;67.70
14142;DHT22;7151;52.246;4.820;2023-07-09T06:13:20;27.70;67.90
14142;DHT22;7151;52.246;4.820;2023-07-09T06:15:47;27.70;67.90
14142;DHT22;7151;52.246;4.820;2023-07-09T06:18:13;27.70;67.90
14142;DHT22;7151;52.246;4.820;2023-07-09T06:20:39;27.70;68.10
14142;DHT22;7151;52.246;4.820;2023-07-09T06:23:04;27.80;68.20
14142;DHT22;7151;52.246;4.820;2023-07-09T06:25:30;27.80;68.30
14142;DHT22;7151;52.246;4.820;2023-07-09T06:27:56;27.80;68.40
14142;DHT22;7151;52.246;4.820;2023-07-09T06:30:22;27.90;68.50
14142;DHT22;7151;52.246;4.820;2023-07-09T06:32:47;27.90;68.50
14142;DHT22;7151;52.246;4.820;2023-07-09T06:35:13;27.90;68.40
14142;DHT22;7151;52.246;4.820;2023-07-09T06:37:38;28.00;68.50
14142;DHT22;7151;52.246;4.820;2023-07-09T06:40:04;28.00;68.40
14142;DHT22;7151;52.246;4.820;2023-07-09T06:42:32;28.00;68.40
14142;DHT22;7151;52.246;4.820;2023-07-09T06:44:58;28.00;68.10
14142;DHT22;7151;52.246;4.820;2023-07-09T06:47:23;28.00;67.60
14142;DHT22;7151;52.246;4.820;2023-07-09T06:49:49;28.10;67.20
14142;DHT22;7151;52.246;4.820;2023-07-09T06:52:14;28.10;66.70
14142;DHT22;7151;52.246;4.820;2023-07-09T06:54:40;28.10;66.50
14142;DHT22;7151;52.246;4.820;2023-07-09T06:57:05;28.10;66.50
14142;DHT22;7151;52.246;4.820;2023-07-09T06:59:31;28.20;66.50
14142;DHT22;7151;52.246;4.820;2023-07-09T07:01:57;28.20;66.20
14142;DHT22;7151;52.246;4.820;2023-07-09T07:04:22;28.20;65.70
14142;DHT22;7151;52.246;4.820;2023-07-09T07:06:50;28.20;65.40
14142;DHT22;7151;52.246;4.820;2023-07-09T07:09:15;28.20;65.00
14142;DHT22;7151;52.246;4.820;2023-07-09T07:11:41;28.30;64.70
14142;DHT22;7151;52.246;4.820;2023-07-09T07:14:06;28.30;64.40
14142;DHT22;7151;52.246;4.820;2023-07-09T07:16:32;28.30;64.00
14142;DHT22;7151;52.246;4.820;2023-07-09T07:18:58;28.30;63.70
14142;DHT22;7151;52.246;4.820;2023-07-09T07:21:23;28.30;63.50
14142;DHT22;7151;52.246;4.820;2023-07-09T07:23:49;28.30;63.50
14142;DHT22;7151;52.246;4.820;2023-07-09T07:26:14;28.30;63.40
14142;DHT22;7151;52.246;4.820;2023-07-09T07:28:40;28.30;63.50
14142;DHT22;7151;52.246;4.820;2023-07-09T07:31:07;28.30;63.50
14142;DHT22;7151;52.246;4.820;2023-07-09T07:33:34;28.30;63.40
14142;DHT22;7151;52.246;4.820;2023-07-09T07:35:59;28.40;63.20
14142;DHT22;7151;52.246;4.820;2023-07-09T07:38:25;28.40;62.70
14142;DHT22;7151;52.246;4.820;2023-07-09T07:40:51;28.50;62.30
14142;DHT22;7151;52.246;4.820;2023-07-09T07:43:16;28.40;61.80
14142;DHT22;7151;52.246;4.820;2023-07-09T07:45:43;28.40;61.40
14142;DHT22;7151;52.246;4.820;2023-07-09T07:48:09;28.50;61.20
14142;DHT22;7151;52.246;4.820;2023-07-09T07:50:35;28.40;60.90
14142;DHT22;7151;52.246;4.820;2023-07-09T07:53:01;28.50;61.10
14142;DHT22;7151;52.246;4.820;2023-07-09T07:55:26;28.50;61.40
14142;DHT22;7151;52.246;4.820;2023-07-09T07:57:52;28.50;61.40
14142;DHT22;7151;52.246;4.820;2023-07-09T08:00:18;28.60;61.60
14142;DHT22;7151;52.246;4.820;2023-07-09T08:02:44;28.60;61.80
14142;DHT22;7151;52.246;4.820;2023-07-09T08:05:10;28.60;61.80
14142;DHT22;7151;52.246;4.820;2023-07-09T08:07:35;28.60;61.60
14142;DHT22;7151;52.246;4.820;2023-07-09T08:10:01;28.60;61.30
14142;DHT22;7151;52.246;4.820;2023-07-09T08:12:26;28.60;61.20
14142;DHT22;7151;52.246;4.820;2023-07-09T08:14:52;28.80;61.50
14142;DHT22;7151;52.246;4.820;2023-07-09T08:17:17;28.70;61.60
14142;DHT22;7151;52.246;4.820;2023-07-09T08:19:51;28.80;61.80
14142;DHT22;7151;52.246;4.820;2023-07-09T08:22:18;28.80;61.90
14142;DHT22;7151;52.246;4.820;2023-07-09T08:24:46;28.80;61.80
14142;DHT22;7151;52.246;4.820;2023-07-09T08:27:11;28.90;61.90
14142;DHT22;7151;52.246;4.820;2023-07-09T08:29:37;28.90;62.10
14142;DHT22;7151;52.246;4.820;2023-07-09T08:32:03;29.00;62.40
14142;DHT22;7151;52.246;4.820;2023-07-09T08:34:29;29.20;62.50
14142;DHT22;7151;52.246;4.820;2023-07-09T08:36:54;29.30;62.50
14142;DHT22;7151;52.246;4.820;2023-07-09T08:39:22;29.40;62.40
14142;DHT22;7151;52.246;4.820;2023-07-09T08:42:06;29.50;62.30
14142;DHT22;7151;52.246;4.820;2023-07-09T08:47:18;29.80;62.10
14142;DHT22;7151;52.246;4.820;2023-07-09T08:50:02;29.90;62.00
14142;DHT22;7151;52.246;4.820;2023-07-09T08:52:41;30.10;61.90
14142;DHT22;7151;52.246;4.820;2023-07-09T08:55:20;30.20;61.80
14142;DHT22;7151;52.246;4.820;2023-07-09T08:57:48;30.30;61.80
14142;DHT22;7151;52.246;4.820;2023-07-09T09:02:58;30.50;61.80
14142;DHT22;7151;52.246;4.820;2023-07-09T09:05:24;30.60;61.40
14142;DHT22;7151;52.246;4.820;2023-07-09T09:11:05;30.70;61.20
14142;DHT22;7151;52.246;4.820;2023-07-09T09:13:32;30.80;61.50
14142;DHT22;7151;52.246;4.820;2023-07-09T09:16:03;30.80;61.70
14142;DHT22;7151;52.246;4.820;2023-07-09T09:18:37;30.90;62.00
14142;DHT22;7151;52.246;4.820;2023-07-09T09:21:24;31.00;61.90
14142;DHT22;7151;52.246;4.820;2023-07-09T09:23:54;31.10;62.30
14142;DHT22;7151;52.246;4.820;2023-07-09T09:26:33;31.20;62.30
14142;DHT22;7151;52.246;4.820;2023-07-09T09:28:59;31.30;62.30
14142;DHT22;7151;52.246;4.820;2023-07-09T09:31:29;31.40;62.30
14142;DHT22;7151;52.246;4.820;2023-07-09T09:33:55;31.40;62.10
14142;DHT22;7151;52.246;4.820;2023-07-09T09:36:26;31.40;62.00
14142;DHT22;7151;52.246;4.820;2023-07-09T09:38:52;31.50;61.80
14142;DHT22;7151;52.246;4.820;2023-07-09T09:41:20;31.60;61.50
14142;DHT22;7151;52.246;4.820;2023-07-09T09:43:47;31.70;61.20
14142;DHT22;7151;52.246;4.820;2023-07-09T09:46:22;31.60;60.80
14142;DHT22;7151;52.246;4.820;2023-07-09T09:48:49;31.70;60.30
14142;DHT22;7151;52.246;4.820;2023-07-09T09:51:17;31.70;59.90
14142;DHT22;7151;52.246;4.820;2023-07-09T09:53:51;31.70;59.70
14142;DHT22;7151;52.246;4.820;2023-07-09T09:56:29;31.80;59.60
14142;DHT22;7151;52.246;4.820;2023-07-09T09:58:56;31.80;59.60
14142;DHT22;7151;52.246;4.820;2023-07-09T10:01:28;31.90;59.50
14142;DHT22;7151;52.246;4.820;2023-07-09T10:03:56;31.90;59.20
14142;DHT22;7151;52.246;4.820;2023-07-09T10:06:38;31.90;59.10
14142;DHT22;7151;52.246;4.820;2023-07-09T10:09:33;32.00;58.90
14142;DHT22;7151;52.246;4.820;2023-07-09T10:12:17;32.10;58.90
14142;DHT22;7151;52.246;4.820;2023-07-09T10:14:56;32.10;58.60
14142;DHT22;7151;52.246;4.820;2023-07-09T10:17:40;32.10;58.40
14142;DHT22;7151;52.246;4.820;2023-07-09T10:20:35;32.10;58.40
14142;DHT22;7151;52.246;4.820;2023-07-09T10:23:24;32.10;58.20
14142;DHT22;7151;52.246;4.820;2023-07-09T10:25:57;32.20;58.10
14142;DHT22;7151;52.246;4.820;2023-07-09T10:31:39;32.10;57.40
14142;DHT22;7151;52.246;4.820;2023-07-09T10:39:40;32.00;58.00
14142;DHT22;7151;52.246;4.820;2023-07-09T10:42:13;31.90;58.10
14142;DHT22;7151;52.246;4.820;2023-07-09T10:44:47;31.90;58.30
14142;DHT22;7151;52.246;4.820;2023-07-09T10:47:35;31.90;58.10
14142;DHT22;7151;52.246;4.820;2023-07-09T10:50:03;31.90;57.90
14142;DHT22;7151;52.246;4.820;2023-07-09T10:52:35;31.90;57.90
14142;DHT22;7151;52.246;4.820;2023-07-09T10:55:08;31.90;57.80
14142;DHT22;7151;52.246;4.820;2023-07-09T10:57:57;31.90;57.50
14142;DHT22;7151;52.246;4.820;2023-07-09T11:00:35;31.90;57.40
14142;DHT22;7151;52.246;4.820;2023-07-09T11:03:10;31.90;57.10
14142;DHT22;7151;52.246;4.820;2023-07-09T11:05:37;31.90;56.90
14142;DHT22;7151;52.246;4.820;2023-07-09T11:08:15;32.00;56.90
14142;DHT22;7151;52.246;4.820;2023-07-09T11:10:52;32.00;56.70
14142;DHT22;7151;52.246;4.820;2023-07-09T11:13:45;32.00;56.50
14142;DHT22;7151;52.246;4.820;2023-07-09T11:16:16;32.10;56.50
14142;DHT22;7151;52.246;4.820;2023-07-09T11:18:55;32.10;56.70
14142;DHT22;7151;52.246;4.820;2023-07-09T11:21:21;32.20;56.50
14142;DHT22;7151;52.246;4.820;2023-07-09T11:23:50;32.20;56.50
14142;DHT22;7151;52.246;4.820;2023-07-09T11:28:54;32.40;56.00
14142;DHT22;7151;52.246;4.820;2023-07-09T11:31:24;32.50;55.90
14142;DHT22;7151;52.246;4.820;2023-07-09T11:36:31;32.60;55.30
14142;DHT22;7151;52.246;4.820;2023-07-09T11:38:57;32.70;55.30
14142;DHT22;7151;52.246;4.820;2023-07-09T11:41:43;32.70;55.20
14142;DHT22;7151;52.246;4.820;2023-07-09T11:44:12;32.70;55.20
14142;DHT22;7151;52.246;4.820;2023-07-09T11:49:48;32.80;55.10
14142;DHT22;7151;52.246;4.820;2023-07-09T11:52:20;32.80;55.30
14142;DHT22;7151;52.246;4.820;2023-07-09T11:54:47;32.90;55.20
14142;DHT22;7151;52.246;4.820;2023-07-09T11:57:13;32.90;55.30
14142;DHT22;7151;52.246;4.820;2023-07-09T11:59:42;33.00;55.40
14142;DHT22;7151;52.246;4.820;2023-07-09T12:02:17;33.00;55.30
14142;DHT22;7151;52.246;4.820;2023-07-09T12:04:44;33.10;55.20
14142;DHT22;7151;52.246;4.820;2023-07-09T12:07:13;33.10;55.20
14142;DHT22;7151;52.246;4.820;2023-07-09T12:09:46;33.20;55.10
14142;DHT22;7151;52.246;4.820;2023-07-09T12:12:25;33.20;55.00
14142;DHT22;7151;52.246;4.820;2023-07-09T12:14:51;33.20;54.80
14142;DHT22;7151;52.246;4.820;2023-07-09T12:17:18;33.20;54.60
14142;DHT22;7151;52.246;4.820;2023-07-09T12:19:44;33.30;54.50
14142;DHT22;7151;52.246;4.820;2023-07-09T12:22:20;33.20;54.40
14142;DHT22;7151;52.246;4.820;2023-07-09T12:24:48;33.30;54.30
14142;DHT22;7151;52.246;4.820;2023-07-09T12:27:21;33.30;54.20
14142;DHT22;7151;52.246;4.820;2023-07-09T12:29:47;33.30;53.80
14142;DHT22;7151;52.246;4.820;2023-07-09T12:32:17;33.20;53.70
14142;DHT22;7151;52.246;4.820;2023-07-09T12:34:52;33.20;53.60
14142;DHT22;7151;52.246;4.820;2023-07-09T12:37:20;33.20;53.70
14142;DHT22;7151;52.246;4.820;2023-07-09T12:39:49;33.10;53.70
14142;DHT22;7151;52.246;4.820;2023-07-09T12:42:23;33.10;53.60
14142;DHT22;7151;52.246;4.820;2023-07-09T12:44:50;33.10;53.40
14142;DHT22;7151;52.246;4.820;2023-07-09T12:47:24;33.00;53.40
14142;DHT22;7151;52.246;4.820;2023-07-09T12:49:50;33.00;53.60
14142;DHT22;7151;52.246;4.820;2023-07-09T12:52:22;32.90;53.40
14142;DHT22;7151;52.246;4.820;2023-07-09T12:54:58;32.80;53.20
14142;DHT22;7151;52.246;4.820;2023-07-09T12:57:25;32.70;53.20
14142;DHT22;7151;52.246;4.820;2023-07-09T12:59:51;32.60;53.20
14142;DHT22;7151;52.246;4.820;2023-07-09T13:04:44;32.40;53.20
14142;DHT22;7151;52.246;4.820;2023-07-09T13:07:27;32.20;53.20
14142;DHT22;7151;52.246;4.820;2023-07-09T13:09:54;32.10;53.40
14142;DHT22;7151;52.246;4.820;2023-07-09T13:12:28;32.00;53.60
14142;DHT22;7151;52.246;4.820;2023-07-09T13:14:54;31.90;53.70
14142;DHT22;7151;52.246;4.820;2023-07-09T13:17:20;31.80;53.80
14142;DHT22;7151;52.246;4.820;2023-07-09T13:19:45;31.70;54.00
14142;DHT22;7151;52.246;4.820;2023-07-09T13:22:15;31.60;54.20
14142;DHT22;7151;52.246;4.820;2023-07-09T13:24:42;31.50;54.60
14142;DHT22;7151;52.246;4.820;2023-07-09T13:27:15;31.50;54.70
14142;DHT22;7151;52.246;4.820;2023-07-09T13:29:41;31.50;54.90
14142;DHT22;7151;52.246;4.820;2023-07-09T13:32:15;31.50;54.70
14142;DHT22;7151;52.246;4.820;2023-07-09T13:34:41;31.50;54.60
14142;DHT22;7151;52.246;4.820;2023-07-09T13:37:15;31.50;54.60
14142;DHT22;7151;52.246;4.820;2023-07-09T13:39:41;31.40;54.50
14142;DHT22;7151;52.246;4.820;2023-07-09T13:42:13;31.40;54.50
14142;DHT22;7151;52.246;4.820;2023-07-09T13:44:39;31.30;54.70
14142;DHT22;7151;52.246;4.820;2023-07-09T13:47:16;31.30;54.70
14142;DHT22;7151;52.246;4.820;2023-07-09T13:49:43;31.30;55.40
14142;DHT22;7151;52.246;4.820;2023-07-09T13:52:18;31.20;54.80
14142;DHT22;7151;52.246;4.820;2023-07-09T13:54:45;31.20;55.40
14142;DHT22;7151;52.246;4.820;2023-07-09T13:57:15;31.20;54.80
14142;DHT22;7151;52.246;4.820;2023-07-09T13:59:41;31.20;54.90
14142;DHT22;7151;52.246;4.820;2023-07-09T14:02:24;31.20;55.00
14142;DHT22;7151;52.246;4.820;2023-07-09T14:04:52;31.20;55.20
14142;DHT22;7151;52.246;4.820;2023-07-09T14:07:33;31.20;55.00
14142;DHT22;7151;52.246;4.820;2023-07-09T14:09:59;31.10;54.70
14142;DHT22;7151;52.246;4.820;2023-07-09T14:12:26;31.10;54.50
14142;DHT22;7151;52.246;4.820;2023-07-09T14:14:53;31.10;54.50
14142;DHT22;7151;52.246;4.820;2023-07-09T14:17:21;31.10;54.50
14142;DHT22;7151;52.246;4.820;2023-07-09T14:19:48;31.00;54.30
14142;DHT22;7151;52.246;4.820;2023-07-09T14:22:30;30.90;54.20
14142;DHT22;7151;52.246;4.820;2023-07-09T14:24:58;30.90;54.10
14142;DHT22;7151;52.246;4.820;2023-07-09T14:27:24;30.80;54.10
14142;DHT22;7151;52.246;4.820;2023-07-09T14:29:50;30.80;54.30
14142;DHT22;7151;52.246;4.820;2023-07-09T14:34:59;30.60;54.10
14142;DHT22;7151;52.246;4.820;2023-07-09T14:37:26;30.50;54.00
14142;DHT22;7151;52.246;4.820;2023-07-09T14:39:52;30.50;54.10
14142;DHT22;7151;52.246;4.820;2023-07-09T14:42:18;30.40;54.30
14142;DHT22;7151;52.246;4.820;2023-07-09T14:44:44;30.40;54.40
14142;DHT22;7151;52.246;4.820;2023-07-09T14:47:18;30.30;54.30
14142;DHT22;7151;52.246;4.820;2023-07-09T14:49:44;30.30;54.50
14142;DHT22;7151;52.246;4.820;2023-07-09T14:52:14;30.20;54.50
14142;DHT22;7151;52.246;4.820;2023-07-09T14:54:43;30.20;54.90
14142;DHT22;7151;52.246;4.820;2023-07-09T14:57:23;30.10;56.10
14142;DHT22;7151;52.246;4.820;2023-07-09T14:59:50;30.00;57.30
14142;DHT22;7151;52.246;4.820;2023-07-09T15:02:34;29.90;57.40
14142;DHT22;7151;52.246;4.820;2023-07-09T15:05:05;29.70;57.80
14142;DHT22;7151;52.246;4.820;2023-07-09T15:07:32;29.50;57.70
14142;DHT22;7151;52.246;4.820;2023-07-09T15:10:00;29.30;58.10
14142;DHT22;7151;52.246;4.820;2023-07-09T15:12:28;29.20;58.70
14142;DHT22;7151;52.246;4.820;2023-07-09T15:17:44;28.90;59.60
14142;DHT22;7151;52.246;4.820;2023-07-09T15:20:21;28.80;59.80
14142;DHT22;7151;52.246;4.820;2023-07-09T15:22:51;28.70;60.60
14142;DHT22;7151;52.246;4.820;2023-07-09T15:25:21;28.60;60.80
14142;DHT22;7151;52.246;4.820;2023-07-09T15:27:47;28.50;61.20
14142;DHT22;7151;52.246;4.820;2023-07-09T15:30:21;28.50;61.60
14142;DHT22;7151;52.246;4.820;2023-07-09T15:32:48;28.50;62.60
14142;DHT22;7151;52.246;4.820;2023-07-09T15:35:15;28.50;63.10
14142;DHT22;7151;52.246;4.820;2023-07-09T15:37:42;28.40;63.50
14142;DHT22;7151;52.246;4.820;2023-07-09T15:40:21;28.40;63.80
14142;DHT22;7151;52.246;4.820;2023-07-09T15:42:53;28.40;64.20
14142;DHT22;7151;52.246;4.820;2023-07-09T15:45:19;28.40;64.10
14142;DHT22;7151;52.246;4.820;2023-07-09T15:47:47;28.40;64.00
14142;DHT22;7151;52.246;4.820;2023-07-09T15:50:18;28.30;64.10
14142;DHT22;7151;52.246;4.820;2023-07-09T15:52:45;28.30;64.40
14142;DHT22;7151;52.246;4.820;2023-07-09T15:55:20;28.20;64.30
14142;DHT22;7151;52.246;4.820;2023-07-09T15:57:47;28.30;64.90
14142;DHT22;7151;52.246;4.820;2023-07-09T16:00:33;28.20;65.00
14142;DHT22;7151;52.246;4.820;2023-07-09T16:03:02;28.20;65.40
14142;DHT22;7151;52.246;4.820;2023-07-09T16:05:30;28.20;65.30
14142;DHT22;7151;52.246;4.820;2023-07-09T16:07:57;28.20;65.60
14142;DHT22;7151;52.246;4.820;2023-07-09T16:10:24;28.20;65.90
14142;DHT22;7151;52.246;4.820;2023-07-09T16:12:52;28.20;66.20
14142;DHT22;7151;52.246;4.820;2023-07-09T16:15:20;28.20;66.20
14142;DHT22;7151;52.246;4.820;2023-07-09T16:17:47;28.20;66.20
14142;DHT22;7151;52.246;4.820;2023-07-09T16:20:16;28.20;66.30
14142;DHT22;7151;52.246;4.820;2023-07-09T16:22:43;28.20;66.60
14142;DHT22;7151;52.246;4.820;2023-07-09T16:25:21;28.20;66.70
14142;DHT22;7151;52.246;4.820;2023-07-09T16:27:48;28.10;66.90
14142;DHT22;7151;52.246;4.820;2023-07-09T16:32:42;28.10;67.40
14142;DHT22;7151;52.246;4.820;2023-07-09T16:35:19;28.20;67.40
14142;DHT22;7151;52.246;4.820;2023-07-09T16:37:47;28.10;67.80